Time;durP1;ratioP1;P1;durP2;ratioP2;P2;SDS_P1;SDS_P2;PMS_P1;PMS_P2;Temp;Humidity;BMP_temperature;BMP_pressure;BME280_temperature;BME280_humidity;BME280_pressure;Samples;Min_cycle;Max_cycle;Signal;HPM_P1;HPM_P2
2022/06/17 00:00:13;;;;;;;;;;;21.00;35.80;;;18.86;37.54;101800.81;12244111;19;20019;-80
2022/06/17 00:04:15;;;;;;;2.38;0.50;;;20.90;35.30;;;19.02;37.83;101843.75;12241806;19;19919;-80
2022/06/17 00:08:37;;;;;;;0.75;0.60;;;20.90;35.80;;;18.63;38.39;101781.28;12239333;19;20031;-80
2022/06/17 00:12:39;;;;;;;0.50;0.50;;;20.80;36.00;;;18.76;38.15;101802.44;12237418;19;20408;-80
2022/06/17 00:16:41;;;;;;;1.85;0.50;;;20.80;36.00;;;18.89;38.40;101827.06;12238971;19;20019;-80
2022/06/17 00:20:45;;;;;;;1.55;0.70;;;20.80;36.10;;;18.89;38.36;101824.41;12242162;19;20078;-80
2022/06/17 00:24:48;;;;;;;1.95;0.80;;;20.90;36.40;;;18.98;38.56;101842.28;12240498;19;20018;-80
2022/06/17 00:28:50;;;;;;;0.63;0.52;;;20.80;36.30;;;18.82;38.56;101819.66;12239004;19;20018;-80
2022/06/17 00:33:00;;;;;;;0.70;0.70;;;20.80;36.30;;;18.88;38.81;101840.41;12238688;19;20011;-80
2022/06/17 00:37:06;;;;;;;1.52;1.17;;;20.80;36.40;;;18.85;38.79;101836.19;12236836;19;20035;-80
2022/06/17 00:41:32;;;;;;;0.90;0.80;;;20.70;36.40;;;18.95;38.88;101862.81;12240368;19;20381;-80
2022/06/17 00:45:47;;;;;;;1.00;0.70;;;20.70;36.50;;;18.76;38.88;101845.63;12238435;19;20487;-80
2022/06/17 00:50:09;;;;;;;0.80;0.70;;;20.60;36.60;;;18.66;38.97;101841.06;12240798;19;20419;-80
2022/06/17 00:54:28;;;;;;;0.60;0.60;;;20.70;36.70;;;18.81;38.79;101877.06;12237428;19;20070;-80
2022/06/17 00:58:56;;;;;;;0.57;0.52;;;20.50;36.60;;;18.65;39.11;101855.25;12236642;19;20007;-80
2022/06/17 01:03:05;;;;;;;0.65;0.63;;;20.50;36.70;;;18.55;38.95;101853.28;12239041;19;20026;-80
2022/06/17 01:07:25;;;;;;;1.13;0.60;;;20.50;36.70;;;18.58;39.14;101868.09;12225359;19;20376;-80
2022/06/17 01:11:31;;;;;;;0.68;0.68;;;20.50;36.90;;;18.60;39.37;101883.84;12239177;19;20035;-80
2022/06/17 01:15:35;;;;;;;0.93;0.70;;;20.40;37.00;;;18.54;39.55;101875.38;12237957;19;20103;-80
2022/06/17 01:19:56;;;;;;;0.85;0.80;;;20.30;37.00;;;18.46;39.64;101866.28;12238772;19;20431;-80
2022/06/17 01:24:01;;;;;;;1.02;0.80;;;20.30;37.30;;;18.46;39.73;101872.44;12239202;19;20018;-80
2022/06/17 01:28:14;;;;;;;0.82;0.70;;;20.30;37.20;;;18.37;39.75;101869.59;12235550;19;20014;-80
2022/06/17 01:32:19;;;;;;;0.70;0.70;;;20.20;37.20;;;18.27;39.81;101858.81;12237722;19;20345;-80
2022/06/17 01:36:27;;;;;;;1.70;1.15;;;20.30;37.30;;;18.27;39.94;101864.09;12235654;19;20629;-80
2022/06/17 01:40:29;;;;;;;1.92;0.55;;;20.40;37.30;;;18.21;39.69;101870.66;12242031;19;20031;-80
2022/06/17 01:44:35;;;;;;;0.70;0.70;;;20.20;37.30;;;18.27;39.92;101879.97;12248957;19;20407;-80
2022/06/17 01:48:51;;;;;;;1.15;0.80;;;20.10;37.40;;;18.32;40.21;101897.19;12250381;19;20010;-80
2022/06/17 01:53:05;;;;;;;0.65;0.65;;;20.10;37.40;;;18.25;40.18;101908.31;12247557;19;20018;-80
2022/06/17 01:57:10;;;;;;;0.77;0.57;;;20.20;37.60;;;18.02;40.04;101880.81;12247535;19;20015;-80
2022/06/17 02:01:13;;;;;;;1.00;0.73;;;20.00;37.50;;;17.89;40.08;101872.84;12249647;19;20015;-80
2022/06/17 02:05:15;;;;;;;0.90;0.90;;;19.90;37.50;;;17.78;40.28;101870.91;12248754;19;20018;-80
2022/06/17 02:09:17;;;;;;;0.88;0.55;;;19.80;37.50;;;17.65;40.37;101865.59;12248020;19;20415;-80
2022/06/17 02:13:23;;;;;;;1.45;0.77;;;19.70;37.50;;;17.67;40.50;101890.13;12246058;19;20036;-80
2022/06/17 02:17:50;;;;;;;0.93;0.70;;;19.70;37.90;;;17.46;40.42;101867.78;12243229;19;20018;-80
2022/06/17 02:22:09;;;;;;;0.90;0.77;;;19.60;37.70;;;17.61;41.00;101911.66;12249865;19;20111;-80
2022/06/17 02:26:13;;;;;;;1.50;0.90;;;19.50;37.90;;;17.34;40.92;101885.28;12245292;19;20010;-80
2022/06/17 02:30:15;;;;;;;2.03;0.98;;;19.50;38.00;;;17.32;40.94;101891.59;12248503;19;20045;-80
2022/06/17 02:34:18;;;;;;;0.93;0.77;;;19.40;38.10;;;17.46;41.24;101908.22;12244539;19;20042;-80
2022/06/17 02:38:26;;;;;;;0.85;0.80;;;19.40;38.20;;;17.29;41.18;101894.44;12237245;19;20026;-80
2022/06/17 02:42:35;;;;;;;1.02;0.70;;;19.40;38.30;;;17.27;41.39;101912.16;12247545;19;20018;-80
2022/06/17 02:46:41;;;;;;;1.05;0.70;;;19.30;38.30;;;17.23;41.26;101909.72;12243382;19;20015;-80
2022/06/17 02:50:44;;;;;;;0.88;0.77;;;19.20;38.30;;;17.05;41.15;101884.50;12246388;19;20078;-80
2022/06/17 02:54:56;;;;;;;0.95;0.90;;;19.20;38.40;;;17.16;41.58;101908.41;12242660;19;20014;-80
2022/06/17 02:59:10;;;;;;;1.10;1.10;;;19.10;38.60;;;17.23;41.70;101930.00;12246316;19;20014;-80
2022/06/17 03:03:21;;;;;;;0.75;0.75;;;19.10;38.60;;;16.84;41.71;101867.41;12245937;19;20060;-80
2022/06/17 03:07:29;;;;;;;1.67;1.05;;;19.10;39.00;;;16.84;41.83;101888.50;12241602;19;20018;-79
2022/06/17 03:11:43;;;;;;;2.22;0.90;;;19.00;38.70;;;16.66;41.91;101851.78;12244021;19;20014;-80
2022/06/17 03:15:49;;;;;;;1.25;1.13;;;18.90;38.60;;;16.73;41.78;101884.72;12242393;19;20082;-80
2022/06/17 03:19:58;;;;;;;1.10;1.00;;;19.20;39.00;;;16.62;42.16;101879.25;12244288;19;20019;-80
2022/06/17 03:24:38;;;;;;;6.18;1.10;;;18.70;38.90;;;16.80;41.90;101907.16;12243444;19;20030;-80
2022/06/17 03:28:44;;;;;;;2.65;1.20;;;18.60;39.20;;;16.42;42.13;101838.31;12243006;19;20010;-80
2022/06/17 03:32:54;;;;;;;2.88;1.33;;;18.70;39.00;;;16.50;42.06;101853.63;12241208;19;20007;-79
2022/06/17 03:37:13;;;;;;;2.72;1.17;;;18.70;39.30;;;16.40;42.49;101832.28;12240906;19;20002;-80
2022/06/17 03:41:58;;;;;;;2.05;1.02;;;18.70;39.40;;;16.66;42.16;101879.91;12243127;19;20031;-80
2022/06/17 03:46:05;;;;;;;1.02;0.70;;;18.60;39.30;;;16.51;42.49;101872.03;12238363;19;20078;-80
2022/06/17 03:50:36;;;;;;;1.10;0.82;;;18.60;39.30;;;16.76;42.72;101910.91;12242060;19;20479;-80
2022/06/17 03:54:40;;;;;;;3.72;1.15;;;18.60;39.50;;;16.79;42.50;101917.81;12235262;19;20022;-80
2022/06/17 03:58:43;;;;;;;2.17;1.00;;;18.60;39.50;;;16.77;42.61;101917.09;12241604;19;20040;-80
2022/06/17 04:02:48;;;;;;;3.47;1.63;;;18.60;39.70;;;16.89;42.58;101926.00;12227780;19;20429;-80
2022/06/17 04:06:55;;;;;;;1.38;0.93;;;18.80;39.90;;;16.84;42.85;101905.19;12237119;19;20263;-79
2022/06/17 04:11:02;;;;;;;1.58;0.88;;;18.70;39.90;;;16.94;42.82;101921.28;12241303;19;20019;-80
2022/06/17 04:15:16;;;;;;;1.27;1.15;;;18.80;39.90;;;17.04;43.10;101935.59;12236552;19;20022;-79
2022/06/17 04:19:26;;;;;;;1.17;0.95;;;18.80;40.10;;;17.08;43.00;101939.72;12239766;19;20025;-80
2022/06/17 04:23:35;;;;;;;3.95;1.20;;;18.90;40.20;;;16.96;43.18;101924.69;12240140;19;20486;-79
2022/06/17 04:28:08;;;;;;;5.53;1.10;;;18.90;40.20;;;17.15;43.10;101948.97;12230627;19;20787;-79
2022/06/17 04:32:28;;;;;;;2.45;0.98;;;18.90;40.40;;;17.15;43.60;101941.06;12236668;19;20043;-80
2022/06/17 04:36:40;;;;;;;1.58;1.08;;;19.00;40.50;;;17.31;43.34;101955.88;12231218;19;20019;-79
2022/06/17 04:40:47;;;;;;;1.92;1.15;;;19.00;40.60;;;17.31;43.84;101925.09;12233663;19;20018;-80
2022/06/17 04:45:04;;;;;;;3.17;1.30;;;19.20;40.90;;;17.52;43.51;101927.25;12233622;19;20011;-80
2022/06/17 04:49:24;;;;;;;4.25;1.40;;;19.30;40.90;;;17.72;43.69;101931.25;12233418;19;20017;-80
2022/06/17 04:53:27;;;;;;;4.55;1.45;;;19.30;41.00;;;17.93;43.46;101943.06;12232792;19;20012;-80
2022/06/17 04:57:47;;;;;;;3.10;1.20;;;19.60;40.80;;;18.08;43.56;101947.31;12220731;19;20014;-79
2022/06/17 05:01:51;;;;;;;2.10;1.20;;;19.70;40.80;;;17.96;43.62;101908.50;12230941;19;20468;-79
2022/06/17 05:06:21;;;;;;;2.90;1.30;;;20.00;40.80;;;18.19;43.50;101925.44;12229781;19;20023;-79
2022/06/17 05:10:37;;;;;;;3.20;1.33;;;20.00;40.60;;;18.20;43.82;101910.41;12232857;19;20023;-80
2022/06/17 05:15:04;;;;;;;2.30;1.13;;;20.20;40.80;;;18.60;43.68;101957.91;12228891;19;20090;-79
2022/06/17 05:19:07;;;;;;;3.15;1.48;;;20.30;40.80;;;18.77;43.42;101970.88;12245830;19;20010;-79
2022/06/17 05:23:15;;;;;;;3.28;1.48;;;20.60;40.50;;;18.82;43.54;101936.97;12245213;19;20013;-80
2022/06/17 05:27:20;;;;;;;2.08;1.17;;;20.50;40.60;;;18.84;43.30;101913.88;12242328;19;20014;-79
2022/06/17 05:31:26;;;;;;;3.38;1.30;;;20.70;40.50;;;19.01;43.45;101926.78;12245433;19;20007;-79
2022/06/17 05:35:33;;;;;;;2.80;1.60;;;20.80;40.60;;;19.43;43.07;101964.34;12243440;19;20021;-79
2022/06/17 05:39:36;;;;;;;1.30;1.20;;;21.00;40.40;;;19.61;43.14;101966.63;12241641;19;20018;-81
2022/06/17 05:43:39;;;;;;;1.85;1.50;;;21.20;40.50;;;19.55;43.20;101914.06;12243799;19;20010;-81
2022/06/17 05:47:48;;;;;;;6.55;1.83;;;21.30;40.70;;;19.82;43.14;101922.66;12239102;19;20029;-85
2022/06/17 05:52:16;;;;;;;5.28;1.50;;;21.50;40.20;;;20.19;43.00;101956.13;12237702;19;20082;-82
2022/06/17 05:56:26;;;;;;;4.72;1.27;;;21.70;40.10;;;20.31;42.98;101940.13;12227381;19;20042;-81
2022/06/17 06:00:29;;;;;;;2.42;1.33;;;21.90;40.30;;;20.63;43.14;101970.44;12240878;19;20031;-81
2022/06/17 06:04:31;;;;;;;1.20;1.10;;;22.30;40.00;;;20.48;42.96;101919.38;12243119;19;20269;-82
2022/06/17 06:08:33;;;;;;;2.92;1.80;;;22.30;40.00;;;20.88;42.55;101959.59;12238509;19;20014;-80
2022/06/17 06:12:54;;;;;;;1.67;1.10;;;22.70;39.90;;;20.98;42.57;101959.69;12237378;19;20038;-81
2022/06/17 06:16:59;;;;;;;1.23;1.15;;;22.60;39.60;;;21.29;42.36;101973.19;12236204;19;20014;-81
2022/06/17 06:21:06;;;;;;;2.33;1.55;;;22.80;39.50;;;21.36;42.21;101961.94;12238021;19;20014;-81
2022/06/17 06:25:14;;;;;;;1.30;1.17;;;23.00;39.20;;;21.51;42.22;101951.91;12237549;19;20018;-81
2022/06/17 06:29:16;;;;;;;2.40;1.30;;;23.10;39.10;;;21.74;42.18;101962.44;12236446;19;20040;-80
2022/06/17 06:33:19;;;;;;;2.40;1.20;;;23.30;38.90;;;21.78;41.78;101942.63;12238808;19;20015;-80
2022/06/17 06:37:21;;;;;;;2.78;1.40;;;23.50;38.70;;;21.89;41.43;101945.22;12231091;19;20300;-80
2022/06/17 06:41:25;;;;;;;2.10;1.20;;;23.60;38.50;;;22.25;41.82;101975.03;12239790;19;20006;-80
2022/06/17 06:45:32;;;;;;;1.40;1.30;;;23.80;38.40;;;22.38;41.29;101985.47;12227048;19;20353;-80
2022/06/17 06:49:37;;;;;;;8.02;1.50;;;23.90;38.10;;;22.33;41.29;101964.56;12237749;19;20029;-81
2022/06/17 06:53:39;;;;;;;2.75;1.40;;;24.00;37.90;;;22.58;41.32;101989.97;12232990;19;20018;-80
2022/06/17 06:57:49;;;;;;;1.58;1.17;;;24.50;38.10;;;22.67;41.32;101983.81;12224512;19;20033;-80
2022/06/17 07:01:50;;;;;;;1.85;1.55;;;24.30;37.90;;;22.73;41.05;101972.63;12233066;19;20014;-80
2022/06/17 07:05:59;;;;;;;2.85;1.52;;;24.40;37.80;;;22.94;40.95;101991.22;12229083;19;20006;-80
2022/06/17 07:10:00;;;;;;;2.78;1.45;;;24.60;37.90;;;23.16;41.20;102010.69;12231028;19;20547;-80
2022/06/17 07:14:02;;;;;;;2.95;1.27;;;24.70;37.70;;;23.12;40.75;101978.16;12227753;19;20015;-80
2022/06/17 07:18:06;;;;;;;1.98;1.30;;;25.10;37.70;;;23.15;40.70;101961.88;12229053;19;20077;-80
2022/06/17 07:22:08;;;;;;;1.42;1.20;;;25.00;37.50;;;23.67;40.37;102014.16;12228529;19;20011;-80
2022/06/17 07:26:22;;;;;;;1.50;1.20;;;25.10;37.30;;;23.77;40.53;101999.88;12229485;19;20022;-80
2022/06/17 07:30:23;;;;;;;2.92;1.30;;;25.20;37.20;;;23.68;40.36;101971.34;12231976;19;20081;-80
2022/06/17 07:34:25;;;;;;;2.97;1.20;;;25.50;37.20;;;24.04;40.38;102023.19;12219901;19;20029;-80
2022/06/17 07:42:53;;;;;;;2.17;1.38;;;25.70;36.80;;;24.24;39.96;102032.03;12231287;19;20011;-80
2022/06/17 07:46:54;;;;;;;2.00;1.02;;;26.00;37.00;;;24.36;39.69;102022.06;12228944;19;20107;-79
2022/06/17 07:50:59;;;;;;;2.90;1.15;;;25.90;36.90;;;24.50;39.40;102040.31;12230346;19;20014;-80
2022/06/17 07:55:01;;;;;;;2.45;1.42;;;26.00;36.50;;;24.51;39.60;102019.78;12226741;19;20022;-80
2022/06/17 07:59:03;;;;;;;2.25;1.25;;;26.10;36.60;;;24.58;39.75;102014.72;12227975;19;21063;-81
2022/06/17 08:03:05;;;;;;;1.40;1.08;;;26.20;36.50;;;24.69;39.55;102020.72;12227984;19;20010;-80
2022/06/17 08:07:06;;;;;;;1.92;0.90;;;26.30;36.30;;;24.72;39.19;102017.75;12225665;19;21004;-80
2022/06/17 08:11:09;;;;;;;1.90;1.10;;;26.40;36.10;;;24.72;38.93;102020.44;12231337;19;20018;-80
2022/06/17 08:15:12;;;;;;;1.85;1.35;;;26.50;36.10;;;24.71;39.12;102018.75;12221095;19;20018;-80
2022/06/17 08:19:15;;;;;;;1.55;1.00;;;26.50;36.10;;;24.93;38.96;102016.72;12224534;19;20523;-81
2022/06/17 08:23:17;;;;;;;4.45;1.20;;;26.60;35.70;;;24.97;38.83;102006.56;12226614;19;20638;-80
2022/06/17 08:27:19;;;;;;;2.45;1.08;;;26.60;35.90;;;25.27;38.34;102029.50;12224037;19;20034;-80
2022/06/17 08:31:21;;;;;;;1.60;1.02;;;26.80;35.80;;;25.31;38.56;102012.19;12227108;19;20024;-81
2022/06/17 08:35:31;;;;;;;1.83;1.13;;;26.90;35.80;;;25.58;38.25;102036.22;12224532;19;20086;-82
2022/06/17 08:39:33;;;;;;;1.58;1.20;;;27.00;35.60;;;25.55;38.29;102020.47;12226736;19;20018;-81
2022/06/17 08:44:12;;;;;;;2.33;1.45;;;27.10;35.50;;;25.52;37.71;102019.91;12227884;19;20014;-80
2022/06/17 08:49:05;;;;;;;1.58;1.10;;;27.20;35.00;;;25.77;37.77;102040.59;12222897;19;20019;-81
2022/06/17 08:53:21;;;;;;;3.42;1.10;;;27.30;34.80;;;25.88;37.17;102055.63;12223352;19;20019;-81
2022/06/17 08:57:54;;;;;;;1.25;1.10;;;27.40;34.70;;;25.89;37.28;102043.91;12222983;19;20022;-81
2022/06/17 09:02:19;;;;;;;1.38;1.13;;;27.50;34.60;;;25.85;37.23;102037.19;12226307;19;20102;-81
2022/06/17 09:07:21;;;;;;;1.37;1.20;;;27.50;34.50;;;26.03;37.31;102046.06;12223359;19;20010;-80
2022/06/17 09:11:55;;;;;;;1.15;0.95;;;27.50;34.50;;;26.12;36.55;102011.31;12224969;19;20771;-81
2022/06/17 09:16:28;;;;;;;1.20;0.85;;;27.60;34.20;;;26.36;36.78;102046.31;12223813;19;20126;-81
2022/06/17 09:20:39;;;;;;;1.30;1.20;;;27.80;34.30;;;26.37;36.83;102021.19;12226666;19;20478;-81
2022/06/17 09:24:44;;;;;;;1.20;0.93;;;27.90;34.00;;;26.42;36.13;101997.47;12222680;19;20584;-81
2022/06/17 09:28:58;;;;;;;1.38;0.80;;;28.00;33.90;;;26.54;35.93;102011.47;12221018;19;20573;-80
2022/06/17 09:33:17;;;;;;;1.30;1.20;;;28.10;34.00;;;26.57;35.74;102012.97;12224059;19;20482;-81
2022/06/17 09:37:54;;;;;;;1.30;1.13;;;28.20;33.70;;;26.64;36.04;102004.16;12224918;19;20015;-81
2022/06/17 09:42:07;;;;;;;0.80;0.80;;;28.20;33.80;;;26.65;35.29;102000.50;12229915;19;20018;-80
2022/06/17 09:46:16;;;;;;;1.25;0.70;;;28.30;33.40;;;26.75;35.46;102008.41;12228528;19;20739;-80
2022/06/17 09:50:51;;;;;;;0.80;0.80;;;28.30;33.00;;;26.79;35.58;102016.94;12230832;19;20033;-80
2022/06/17 09:55:20;;;;;;;0.90;0.90;;;28.30;33.10;;;26.88;35.58;101997.25;12225934;19;20014;-81
2022/06/17 09:59:34;;;;;;;0.93;0.82;;;28.40;33.30;;;27.04;35.08;101994.63;12217172;19;20018;-81
2022/06/17 10:03:39;;;;;;;1.58;1.10;;;28.50;33.10;;;27.21;34.93;102002.75;12219020;19;20018;-80
2022/06/17 10:08:05;;;;;;;1.73;1.00;;;28.60;33.00;;;27.30;35.05;102001.75;12234270;19;20082;-80
2022/06/17 10:12:34;;;;;;;0.88;0.82;;;28.70;32.90;;;27.34;34.87;101992.41;12242052;19;20275;-81
2022/06/17 10:21:33;;;;;;;2.92;0.70;;;28.80;32.70;;;27.32;34.35;101976.44;12244301;19;20518;-80
2022/06/17 10:26:36;;;;;;;1.10;0.80;;;28.90;33.00;;;27.54;34.02;101995.63;12239867;19;20534;-82
2022/06/17 10:30:59;;;;;;;1.30;1.20;;;29.00;32.70;;;27.57;34.13;101981.84;12243042;19;20015;-79
2022/06/17 10:35:05;;;;;;;1.38;1.15;;;29.10;32.30;;;27.48;34.22;101972.13;12236383;19;20018;-79
2022/06/17 10:39:11;;;;;;;1.35;0.90;;;29.40;32.70;;;27.41;34.30;101963.06;12242133;19;20007;-78
2022/06/17 10:43:22;;;;;;;0.82;0.82;;;29.10;32.20;;;27.53;33.57;101978.69;12241214;19;20078;-79
2022/06/17 10:47:59;;;;;;;0.85;0.85;;;29.10;32.20;;;27.66;33.58;101980.06;12238026;19;20022;-79
2022/06/17 10:52:08;;;;;;;1.27;0.75;;;29.10;31.90;;;27.73;33.50;101964.94;12243123;19;20017;-78
2022/06/17 10:56:25;;;;;;;0.95;0.85;;;29.20;32.10;;;27.89;33.18;101958.75;12237525;19;20011;-78
2022/06/17 11:00:28;;;;;;;2.47;0.90;;;29.40;31.80;;;28.05;33.36;101964.13;12241509;19;20011;-78
2022/06/17 11:04:36;;;;;;;2.10;0.90;;;29.40;32.10;;;27.99;33.05;101940.63;12240769;19;20024;-78
2022/06/17 11:08:49;;;;;;;2.28;0.80;;;29.50;31.60;;;28.17;32.76;101964.63;12239349;19;20015;-79
2022/06/17 11:13:06;;;;;;;1.98;0.70;;;29.60;31.50;;;28.08;32.21;101946.81;12239430;19;20010;-79
2022/06/17 11:17:32;;;;;;;1.15;0.90;;;29.60;31.00;;;28.02;32.47;101948.34;12236921;19;20037;-78
2022/06/17 11:21:45;;;;;;;1.63;1.10;;;29.60;31.20;;;27.88;32.46;101919.50;12240510;19;20010;-79
2022/06/17 11:25:50;;;;;;;3.70;0.88;;;29.50;31.20;;;28.04;32.54;101932.91;12237640;19;20023;-79
2022/06/17 11:30:09;;;;;;;7.20;0.90;;;29.50;31.30;;;28.25;32.23;101937.75;12238098;19;20378;-79
2022/06/17 11:34:26;;;;;;;0.75;0.70;;;29.60;31.10;;;28.26;31.85;101928.66;12236815;19;20374;-78
2022/06/17 11:38:32;;;;;;;3.03;0.75;;;29.80;30.90;;;28.30;31.87;101930.00;12235603;19;20015;-78
2022/06/17 11:42:42;;;;;;;0.60;0.60;;;29.70;30.60;;;28.39;31.71;101930.81;12238009;19;20020;-78
2022/06/17 11:46:58;;;;;;;0.70;0.70;;;29.90;30.80;;;28.35;31.29;101916.88;12235025;19;20504;-79
2022/06/17 11:51:17;;;;;;;0.77;0.63;;;29.90;30.30;;;28.42;31.71;101920.53;12238654;19;20011;-78
2022/06/17 11:55:28;;;;;;;0.70;0.70;;;29.90;30.50;;;28.57;31.44;101930.59;12234063;19;20042;-79
2022/06/17 11:59:39;;;;;;;0.98;0.60;;;30.10;30.60;;;28.35;31.46;101881.09;12239335;19;20015;-78
2022/06/17 12:03:46;;;;;;;0.77;0.70;;;30.00;30.60;;;28.43;31.12;101864.97;12237026;19;20505;-79
2022/06/17 12:07:59;;;;;;;0.70;0.70;;;30.10;30.40;;;28.69;31.05;101918.47;12233019;19;20070;-78
2022/06/17 12:12:14;;;;;;;1.02;0.73;;;30.20;30.50;;;28.75;31.20;101906.16;12235464;19;20373;-78
2022/06/17 12:16:23;;;;;;;1.65;0.60;;;30.20;30.40;;;28.81;31.25;101900.06;12235248;19;20026;-78
2022/06/17 12:21:12;;;;;;;4.65;0.50;;;30.30;30.30;;;28.97;30.63;101916.13;12236535;19;20027;-78
2022/06/17 12:25:44;;;;;;;4.53;0.80;;;30.40;30.20;;;29.08;30.70;101910.41;12235223;19;20010;-78
2022/06/17 12:30:21;;;;;;;0.90;0.68;;;30.40;30.40;;;29.11;30.48;101906.47;12235565;19;20015;-78
2022/06/17 12:34:47;;;;;;;3.22;0.70;;;30.50;30.30;;;29.10;30.52;101883.28;12235137;19;20011;-78
2022/06/17 12:39:27;;;;;;;1.95;0.77;;;30.60;30.20;;;29.21;30.59;101887.41;12233558;19;20022;-78
2022/06/17 12:43:59;;;;;;;0.70;0.70;;;30.70;30.30;;;29.29;30.35;101901.66;12234979;19;20017;-78
2022/06/17 12:48:58;;;;;;;0.60;0.60;;;30.80;30.00;;;29.28;30.29;101901.84;12232925;19;20078;-78
2022/06/17 12:53:42;;;;;;;1.33;0.80;;;30.70;30.00;;;29.30;30.37;101891.72;12227586;19;20500;-78
2022/06/17 12:57:57;;;;;;;0.80;0.63;;;30.80;30.10;;;29.40;30.08;101892.31;12229957;19;20014;-78
2022/06/17 13:02:32;;;;;;;0.80;0.80;;;30.80;30.00;;;29.45;30.05;101887.22;12235451;19;20014;-78
2022/06/17 13:07:24;;;;;;;0.77;0.70;;;30.90;29.90;;;29.45;29.84;101881.84;12232619;19;20427;-80
2022/06/17 13:11:36;;;;;;;2.95;0.65;;;30.80;30.00;;;29.46;29.49;101872.78;12228879;19;20348;-79
2022/06/17 13:15:52;;;;;;;2.20;0.90;;;30.80;29.60;;;29.42;29.54;101868.75;12218523;19;20017;-79
2022/06/17 13:19:58;;;;;;;3.15;0.75;;;30.90;30.00;;;29.47;29.78;101866.34;12230013;19;20078;-78
2022/06/17 13:24:29;;;;;;;0.70;0.70;;;30.90;29.80;;;29.27;29.64;101832.88;12222718;19;20070;-79
2022/06/17 13:29:00;;;;;;;1.25;0.90;;;30.90;29.80;;;29.48;29.61;101851.88;12227674;19;20014;-80
2022/06/17 13:33:28;;;;;;;0.60;0.60;;;30.90;29.80;;;29.44;29.47;101839.81;12231166;19;20068;-80
2022/06/17 13:37:40;;;;;;;0.60;0.60;;;30.90;29.70;;;29.34;29.63;101831.16;12233258;19;20016;-79
2022/06/17 13:41:57;;;;;;;0.68;0.55;;;30.90;29.70;;;29.51;29.43;101843.44;12244817;19;20007;-79
2022/06/17 13:46:47;;;;;;;1.48;0.57;;;30.90;29.70;;;29.67;29.38;101861.31;12241372;19;20034;-80
2022/06/17 13:51:05;;;;;;;1.92;0.82;;;31.10;29.70;;;29.68;29.46;101854.94;12241624;19;20019;-79
2022/06/17 13:55:23;;;;;;;0.60;0.57;;;31.10;29.60;;;29.64;29.21;101853.59;12240704;19;20074;-79
2022/06/17 13:59:54;;;;;;;1.58;0.80;;;31.10;29.40;;;29.58;29.54;101842.72;12243220;19;20018;-79
2022/06/17 14:03:58;;;;;;;1.88;0.60;;;31.00;29.50;;;29.65;29.20;101852.59;12242001;19;20072;-79
2022/06/17 14:08:17;;;;;;;1.02;0.70;;;31.10;29.60;;;29.64;28.83;101842.84;12237315;19;20377;-79
2022/06/17 14:12:46;;;;;;;0.63;0.60;;;31.10;29.50;;;29.63;28.82;101845.69;12241454;19;20015;-79
2022/06/17 14:17:03;;;;;;;2.85;0.80;;;31.10;29.50;;;29.72;28.91;101858.09;12236650;19;20014;-79
2022/06/17 14:21:26;;;;;;;0.63;0.63;;;31.10;29.40;;;29.30;28.55;101794.84;12229417;19;20085;-79
2022/06/17 14:25:57;;;;;;;0.77;0.70;;;31.10;29.10;;;29.65;28.46;101849.06;12236461;19;20026;-78
2022/06/17 14:30:11;;;;;;;0.60;0.60;;;31.10;29.20;;;29.65;28.63;101857.13;12238066;19;20389;-80
2022/06/17 14:34:40;;;;;;;1.25;0.80;;;31.00;29.30;;;29.41;28.60;101839.31;12238649;19;20032;-79
2022/06/17 14:39:11;;;;;;;1.05;0.95;;;31.10;29.30;;;29.51;28.59;101862.28;12239071;19;20499;-79
2022/06/17 14:43:18;;;;;;;0.70;0.70;;;31.00;29.60;;;29.58;28.59;101856.19;12240791;19;20026;-79
2022/06/17 14:47:29;;;;;;;0.70;0.70;;;31.00;29.30;;;29.55;28.83;101843.91;12232924;19;20027;-79
2022/06/17 14:51:45;;;;;;;2.58;0.70;;;31.00;29.50;;;29.38;28.48;101827.09;12239119;19;20042;-79
2022/06/17 14:56:44;;;;;;;0.65;0.60;;;30.90;29.20;;;29.39;28.67;101839.50;12234060;19;20018;-79
2022/06/17 15:00:51;;;;;;;1.00;0.90;;;31.00;29.50;;;29.41;28.64;101850.94;12236975;19;20053;-79
2022/06/17 15:04:56;;;;;;;0.90;0.80;;;30.90;29.40;;;29.39;28.60;101850.28;12237612;19;20070;-79
2022/06/17 15:08:59;;;;;;;2.78;0.77;;;30.80;29.30;;;29.35;28.45;101832.81;12237364;19;20014;-79
2022/06/17 15:17:53;;;;;;;1.42;0.60;;;30.80;29.10;;;29.41;28.18;101829.41;12234978;19;20396;-79
2022/06/17 15:22:13;;;;;;;1.42;0.80;;;30.80;29.10;;;29.41;28.10;101818.66;12238188;19;20018;-79
2022/06/17 15:26:53;;;;;;;2.15;0.73;;;30.80;29.10;;;29.29;28.32;101788.63;12237046;19;20021;-80
2022/06/17 15:30:56;;;;;;;2.85;0.90;;;30.80;29.20;;;29.42;28.63;101796.09;12236576;19;20018;-79
2022/06/17 15:34:57;;;;;;;0.73;0.70;;;30.90;29.10;;;29.56;28.15;101819.50;12236967;19;20027;-79
2022/06/17 15:39:08;;;;;;;1.88;0.90;;;30.90;29.00;;;29.50;27.74;101806.78;12236961;19;20374;-79
2022/06/17 15:43:17;;;;;;;1.60;0.85;;;30.90;29.00;;;29.09;28.20;101736.38;12238412;19;20428;-79
2022/06/17 15:47:19;;;;;;;1.27;0.80;;;30.90;29.10;;;29.49;28.08;101813.19;12234404;19;20018;-79
2022/06/17 15:51:22;;;;;;;0.95;0.73;;;30.90;29.10;;;29.32;28.34;101796.31;12237570;19;20078;-79
2022/06/17 15:55:31;;;;;;;2.90;1.10;;;30.90;29.10;;;29.36;28.11;101804.91;12233193;19;20014;-79
2022/06/17 15:59:33;;;;;;;1.23;0.82;;;30.80;29.20;;;29.21;28.19;101787.88;12233628;19;20048;-79
2022/06/17 16:03:47;;;;;;;0.77;0.77;;;30.80;29.10;;;29.26;28.36;101796.25;12237412;19;20472;-79
2022/06/17 16:07:59;;;;;;;0.90;0.90;;;30.70;29.20;;;29.23;28.31;101797.44;12236603;19;20015;-79
2022/06/17 16:12:21;;;;;;;1.30;1.05;;;30.70;29.40;;;29.22;27.98;101802.97;12237346;19;20039;-79
2022/06/17 16:16:46;;;;;;;1.73;1.00;;;30.60;29.40;;;29.18;27.99;101799.00;12235094;19;20011;-79
2022/06/17 16:20:47;;;;;;;0.63;0.63;;;30.60;29.20;;;28.96;28.51;101773.75;12233940;19;20531;-79
2022/06/17 16:24:57;;;;;;;0.88;0.88;;;30.70;29.30;;;29.15;28.03;101810.13;12234241;19;20326;-79
2022/06/17 16:29:00;;;;;;;1.38;0.77;;;30.50;29.10;;;28.99;28.20;101784.16;12231914;19;20014;-79
2022/06/17 16:33:14;;;;;;;1.20;0.85;;;30.50;29.20;;;29.10;27.84;101792.66;12237083;19;20010;-79
2022/06/17 16:37:38;;;;;;;1.27;0.90;;;30.50;29.30;;;29.10;28.49;101789.97;12236036;19;20683;-79
2022/06/17 16:46:12;;;;;;;1.65;0.90;;;30.50;29.60;;;29.06;28.23;101772.53;12228070;19;20378;-79
2022/06/17 16:50:14;;;;;;;0.70;0.70;;;30.60;29.30;;;29.14;28.09;101786.91;12238961;19;20024;-79
2022/06/17 16:54:17;;;;;;;0.95;0.80;;;30.50;29.20;;;29.14;28.26;101786.91;12236999;19;20053;-79
2022/06/17 16:58:19;;;;;;;1.80;0.90;;;30.50;29.30;;;28.90;28.39;101748.44;12233532;19;20052;-79
2022/06/17 17:02:22;;;;;;;0.85;0.80;;;30.50;29.40;;;28.87;28.17;101752.31;12239101;19;20022;-79
2022/06/17 17:06:24;;;;;;;0.75;0.75;;;30.50;29.30;;;29.10;28.30;101787.28;12236584;19;20415;-79
2022/06/17 17:10:25;;;;;;;0.60;0.60;;;30.50;29.30;;;29.05;28.54;101772.69;12238800;19;20772;-79
2022/06/17 17:14:28;;;;;;;1.77;1.00;;;30.50;29.40;;;29.06;28.24;101774.41;12245119;19;20014;-79
2022/06/17 17:18:29;;;;;;;0.80;0.80;;;30.50;29.40;;;29.03;28.58;101772.00;12245980;19;20114;-79
2022/06/17 17:22:36;;;;;;;3.45;0.90;;;30.50;29.70;;;28.97;28.00;101770.88;12246238;19;20384;-79
2022/06/17 17:26:38;;;;;;;3.15;1.10;;;30.50;29.40;;;28.85;28.35;101756.19;12245333;19;20015;-79
2022/06/17 17:30:40;;;;;;;0.95;0.70;;;30.50;29.70;;;28.92;28.53;101769.75;12251421;19;20041;-79
2022/06/17 17:34:47;;;;;;;1.80;1.00;;;30.40;29.60;;;28.79;28.44;101759.63;12244495;19;20029;-79
2022/06/17 17:38:49;;;;;;;1.83;1.00;;;30.30;29.70;;;28.71;28.41;101751.63;12248140;19;20025;-79